sensor_id;sensor_type;location;lat;lon;timestamp;P1;durP1;ratioP1;P2;durP2;ratioP2
34765;SDS011;20984;43.508;1.504;2023-04-25T00:00:00;5.65;;;4.53;;
34765;SDS011;20984;43.508;1.504;2023-04-25T00:02:27;8.80;;;5.18;;
34765;SDS011;20984;43.508;1.504;2023-04-25T00:04:53;9.65;;;5.18;;
34765;SDS011;20984;43.508;1.504;2023-04-25T00:07:19;6.18;;;5.43;;
34765;SDS011;20984;43.508;1.504;2023-04-25T00:09:45;13.02;;;5.28;;
34765;SDS011;20984;43.508;1.504;2023-04-25T00:12:10;5.63;;;4.18;;
34765;SDS011;20984;43.508;1.504;2023-04-25T00:14:36;6.40;;;5.28;;
34765;SDS011;20984;43.508;1.504;2023-04-25T00:17:02;6.47;;;4.32;;
34765;SDS011;20984;43.508;1.504;2023-04-25T00:19:27;10.23;;;4.50;;
34765;SDS011;20984;43.508;1.504;2023-04-25T00:21:54;7.45;;;5.15;;
34765;SDS011;20984;43.508;1.504;2023-04-25T00:24:20;6.93;;;4.25;;
34765;SDS011;20984;43.508;1.504;2023-04-25T00:26:46;9.35;;;5.32;;
34765;SDS011;20984;43.508;1.504;2023-04-25T00:29:12;9.15;;;4.57;;
34765;SDS011;20984;43.508;1.504;2023-04-25T00:31:38;9.35;;;4.82;;
34765;SDS011;20984;43.508;1.504;2023-04-25T00:34:03;7.28;;;4.50;;
34765;SDS011;20984;43.508;1.504;2023-04-25T00:36:29;8.60;;;5.53;;
34765;SDS011;20984;43.508;1.504;2023-04-25T00:38:55;7.38;;;4.55;;
34765;SDS011;20984;43.508;1.504;2023-04-25T00:41:21;7.93;;;4.80;;
34765;SDS011;20984;43.508;1.504;2023-04-25T00:43:47;5.68;;;3.42;;
34765;SDS011;20984;43.508;1.504;2023-04-25T00:46:14;4.75;;;3.38;;
34765;SDS011;20984;43.508;1.504;2023-04-25T00:48:39;5.53;;;3.85;;
34765;SDS011;20984;43.508;1.504;2023-04-25T00:51:05;6.18;;;3.65;;
34765;SDS011;20984;43.508;1.504;2023-04-25T00:53:31;6.63;;;3.67;;
34765;SDS011;20984;43.508;1.504;2023-04-25T00:55:57;5.55;;;3.20;;
34765;SDS011;20984;43.508;1.504;2023-04-25T00:58:24;5.97;;;3.33;;
34765;SDS011;20984;43.508;1.504;2023-04-25T01:00:50;5.85;;;2.63;;
34765;SDS011;20984;43.508;1.504;2023-04-25T01:03:17;4.72;;;2.58;;
34765;SDS011;20984;43.508;1.504;2023-04-25T01:05:45;6.43;;;2.90;;
34765;SDS011;20984;43.508;1.504;2023-04-25T01:08:12;8.23;;;2.80;;
34765;SDS011;20984;43.508;1.504;2023-04-25T01:10:38;2.63;;;2.25;;
34765;SDS011;20984;43.508;1.504;2023-04-25T01:13:04;3.35;;;2.35;;
34765;SDS011;20984;43.508;1.504;2023-04-25T01:15:30;2.30;;;2.10;;
34765;SDS011;20984;43.508;1.504;2023-04-25T01:17:56;3.28;;;2.20;;
34765;SDS011;20984;43.508;1.504;2023-04-25T01:20:23;4.20;;;2.00;;
34765;SDS011;20984;43.508;1.504;2023-04-25T01:22:52;2.30;;;1.92;;
34765;SDS011;20984;43.508;1.504;2023-04-25T01:25:19;3.35;;;2.10;;
34765;SDS011;20984;43.508;1.504;2023-04-25T01:27:45;2.78;;;1.90;;
34765;SDS011;20984;43.508;1.504;2023-04-25T01:30:11;3.85;;;1.90;;
34765;SDS011;20984;43.508;1.504;2023-04-25T01:32:37;2.45;;;2.00;;
34765;SDS011;20984;43.508;1.504;2023-04-25T01:35:05;2.88;;;1.85;;
34765;SDS011;20984;43.508;1.504;2023-04-25T01:37:35;5.45;;;1.95;;
34765;SDS011;20984;43.508;1.504;2023-04-25T01:40:02;2.03;;;1.75;;
34765;SDS011;20984;43.508;1.504;2023-04-25T01:42:30;1.70;;;1.60;;
34765;SDS011;20984;43.508;1.504;2023-04-25T01:44:56;2.00;;;1.70;;
34765;SDS011;20984;43.508;1.504;2023-04-25T01:47:22;3.47;;;1.65;;
34765;SDS011;20984;43.508;1.504;2023-04-25T01:49:48;2.70;;;1.70;;
34765;SDS011;20984;43.508;1.504;2023-04-25T01:52:13;2.10;;;1.90;;
34765;SDS011;20984;43.508;1.504;2023-04-25T01:54:40;1.60;;;1.50;;
34765;SDS011;20984;43.508;1.504;2023-04-25T01:57:09;2.20;;;1.73;;
34765;SDS011;20984;43.508;1.504;2023-04-25T01:59:35;1.67;;;1.58;;
34765;SDS011;20984;43.508;1.504;2023-04-25T02:02:01;1.52;;;1.42;;
34765;SDS011;20984;43.508;1.504;2023-04-25T02:04:28;3.25;;;2.05;;
34765;SDS011;20984;43.508;1.504;2023-04-25T02:06:55;1.50;;;1.40;;
34765;SDS011;20984;43.508;1.504;2023-04-25T02:09:20;1.80;;;1.70;;
34765;SDS011;20984;43.508;1.504;2023-04-25T02:11:46;1.40;;;1.30;;
34765;SDS011;20984;43.508;1.504;2023-04-25T02:14:12;2.15;;;1.65;;
34765;SDS011;20984;43.508;1.504;2023-04-25T02:16:38;1.77;;;1.55;;
34765;SDS011;20984;43.508;1.504;2023-04-25T02:19:03;1.67;;;1.50;;
34765;SDS011;20984;43.508;1.504;2023-04-25T02:21:29;1.55;;;1.45;;
34765;SDS011;20984;43.508;1.504;2023-04-25T02:23:55;4.20;;;1.80;;
34765;SDS011;20984;43.508;1.504;2023-04-25T02:26:21;1.67;;;1.58;;
34765;SDS011;20984;43.508;1.504;2023-04-25T02:28:48;1.50;;;1.40;;
34765;SDS011;20984;43.508;1.504;2023-04-25T02:31:15;1.70;;;1.50;;
34765;SDS011;20984;43.508;1.504;2023-04-25T02:33:41;2.35;;;1.60;;
34765;SDS011;20984;43.508;1.504;2023-04-25T02:36:06;2.00;;;1.65;;
34765;SDS011;20984;43.508;1.504;2023-04-25T02:38:32;1.50;;;1.40;;
34765;SDS011;20984;43.508;1.504;2023-04-25T02:40:58;1.92;;;1.50;;
34765;SDS011;20984;43.508;1.504;2023-04-25T02:43:24;1.55;;;1.45;;
34765;SDS011;20984;43.508;1.504;2023-04-25T02:45:49;2.13;;;1.58;;
34765;SDS011;20984;43.508;1.504;2023-04-25T02:48:15;1.73;;;1.48;;
34765;SDS011;20984;43.508;1.504;2023-04-25T02:50:41;1.60;;;1.50;;
34765;SDS011;20984;43.508;1.504;2023-04-25T02:53:07;1.80;;;1.40;;
34765;SDS011;20984;43.508;1.504;2023-04-25T02:55:32;1.42;;;1.33;;
34765;SDS011;20984;43.508;1.504;2023-04-25T02:57:58;1.60;;;1.50;;
34765;SDS011;20984;43.508;1.504;2023-04-25T03:00:24;1.50;;;1.40;;
34765;SDS011;20984;43.508;1.504;2023-04-25T03:02:50;2.78;;;1.42;;
34765;SDS011;20984;43.508;1.504;2023-04-25T03:05:16;1.30;;;1.20;;
34765;SDS011;20984;43.508;1.504;2023-04-25T03:07:42;2.35;;;1.67;;
34765;SDS011;20984;43.508;1.504;2023-04-25T03:10:09;1.40;;;1.30;;
34765;SDS011;20984;43.508;1.504;2023-04-25T03:12:35;1.63;;;1.52;;
34765;SDS011;20984;43.508;1.504;2023-04-25T03:15:01;2.05;;;1.60;;
34765;SDS011;20984;43.508;1.504;2023-04-25T03:17:27;1.63;;;1.52;;
34765;SDS011;20984;43.508;1.504;2023-04-25T03:19:52;1.70;;;1.60;;
34765;SDS011;20984;43.508;1.504;2023-04-25T03:22:18;2.13;;;1.60;;
34765;SDS011;20984;43.508;1.504;2023-04-25T03:24:43;1.60;;;1.50;;
34765;SDS011;20984;43.508;1.504;2023-04-25T03:27:09;1.70;;;1.60;;
34765;SDS011;20984;43.508;1.504;2023-04-25T03:29:35;1.50;;;1.40;;
34765;SDS011;20984;43.508;1.504;2023-04-25T03:32:01;2.10;;;1.40;;
34765;SDS011;20984;43.508;1.504;2023-04-25T03:34:26;1.60;;;1.50;;
34765;SDS011;20984;43.508;1.504;2023-04-25T03:36:52;1.40;;;1.30;;
34765;SDS011;20984;43.508;1.504;2023-04-25T03:39:18;1.63;;;1.52;;
34765;SDS011;20984;43.508;1.504;2023-04-25T03:41:44;1.75;;;1.40;;
34765;SDS011;20984;43.508;1.504;2023-04-25T03:44:09;1.30;;;1.20;;
34765;SDS011;20984;43.508;1.504;2023-04-25T03:46:35;2.58;;;1.70;;
34765;SDS011;20984;43.508;1.504;2023-04-25T03:49:01;1.58;;;1.48;;
34765;SDS011;20984;43.508;1.504;2023-04-25T03:51:26;2.67;;;1.73;;
34765;SDS011;20984;43.508;1.504;2023-04-25T03:53:52;1.95;;;1.75;;
34765;SDS011;20984;43.508;1.504;2023-04-25T03:56:18;3.28;;;1.73;;
34765;SDS011;20984;43.508;1.504;2023-04-25T03:58:43;2.17;;;1.58;;
34765;SDS011;20984;43.508;1.504;2023-04-25T04:01:09;2.15;;;1.80;;
34765;SDS011;20984;43.508;1.504;2023-04-25T04:03:36;1.90;;;1.70;;
34765;SDS011;20984;43.508;1.504;2023-04-25T04:06:02;2.20;;;1.80;;
34765;SDS011;20984;43.508;1.504;2023-04-25T04:08:29;1.55;;;1.45;;
34765;SDS011;20984;43.508;1.504;2023-04-25T04:10:55;1.60;;;1.50;;
34765;SDS011;20984;43.508;1.504;2023-04-25T04:13:22;1.60;;;1.50;;
34765;SDS011;20984;43.508;1.504;2023-04-25T04:15:47;1.60;;;1.50;;
34765;SDS011;20984;43.508;1.504;2023-04-25T04:18:13;3.03;;;1.45;;
34765;SDS011;20984;43.508;1.504;2023-04-25T04:20:39;3.83;;;2.10;;
34765;SDS011;20984;43.508;1.504;2023-04-25T04:23:04;1.60;;;1.50;;
34765;SDS011;20984;43.508;1.504;2023-04-25T04:25:30;1.50;;;1.40;;
34765;SDS011;20984;43.508;1.504;2023-04-25T04:27:56;1.83;;;1.73;;
34765;SDS011;20984;43.508;1.504;2023-04-25T04:30:22;4.55;;;1.80;;
34765;SDS011;20984;43.508;1.504;2023-04-25T04:32:54;1.60;;;1.50;;
34765;SDS011;20984;43.508;1.504;2023-04-25T04:35:21;1.67;;;1.40;;
34765;SDS011;20984;43.508;1.504;2023-04-25T04:37:47;1.83;;;1.60;;
34765;SDS011;20984;43.508;1.504;2023-04-25T04:40:13;1.70;;;1.50;;
34765;SDS011;20984;43.508;1.504;2023-04-25T04:42:43;1.55;;;1.45;;
34765;SDS011;20984;43.508;1.504;2023-04-25T04:45:10;1.70;;;1.60;;
34765;SDS011;20984;43.508;1.504;2023-04-25T04:47:36;3.03;;;1.60;;
34765;SDS011;20984;43.508;1.504;2023-04-25T04:50:08;2.85;;;1.70;;
34765;SDS011;20984;43.508;1.504;2023-04-25T04:52:35;1.90;;;1.70;;
34765;SDS011;20984;43.508;1.504;2023-04-25T04:55:02;1.98;;;1.83;;
34765;SDS011;20984;43.508;1.504;2023-04-25T04:57:30;1.65;;;1.55;;
34765;SDS011;20984;43.508;1.504;2023-04-25T04:59:58;2.53;;;1.70;;
34765;SDS011;20984;43.508;1.504;2023-04-25T05:02:24;1.95;;;1.75;;
34765;SDS011;20984;43.508;1.504;2023-04-25T05:04:50;2.00;;;1.80;;
34765;SDS011;20984;43.508;1.504;2023-04-25T05:07:16;2.42;;;1.73;;
34765;SDS011;20984;43.508;1.504;2023-04-25T05:09:42;1.88;;;1.70;;
34765;SDS011;20984;43.508;1.504;2023-04-25T05:12:08;2.47;;;1.92;;
34765;SDS011;20984;43.508;1.504;2023-04-25T05:14:34;2.22;;;1.80;;
34765;SDS011;20984;43.508;1.504;2023-04-25T05:17:00;2.05;;;1.80;;
34765;SDS011;20984;43.508;1.504;2023-04-25T05:19:25;2.72;;;1.80;;
34765;SDS011;20984;43.508;1.504;2023-04-25T05:21:51;2.25;;;1.98;;
34765;SDS011;20984;43.508;1.504;2023-04-25T05:24:17;3.90;;;2.03;;
34765;SDS011;20984;43.508;1.504;2023-04-25T05:26:43;2.70;;;2.08;;
34765;SDS011;20984;43.508;1.504;2023-04-25T05:29:09;3.75;;;1.73;;
34765;SDS011;20984;43.508;1.504;2023-04-25T05:31:35;2.47;;;1.70;;
34765;SDS011;20984;43.508;1.504;2023-04-25T05:34:01;1.85;;;1.70;;
34765;SDS011;20984;43.508;1.504;2023-04-25T05:36:27;1.98;;;1.80;;
34765;SDS011;20984;43.508;1.504;2023-04-25T05:38:53;2.45;;;1.83;;
34765;SDS011;20984;43.508;1.504;2023-04-25T05:41:19;1.95;;;1.67;;
34765;SDS011;20984;43.508;1.504;2023-04-25T05:43:45;4.65;;;2.03;;
34765;SDS011;20984;43.508;1.504;2023-04-25T05:46:12;3.55;;;2.13;;
34765;SDS011;20984;43.508;1.504;2023-04-25T05:48:38;2.22;;;1.80;;
34765;SDS011;20984;43.508;1.504;2023-04-25T05:51:04;3.42;;;2.17;;
34765;SDS011;20984;43.508;1.504;2023-04-25T05:53:30;3.13;;;2.00;;
34765;SDS011;20984;43.508;1.504;2023-04-25T05:55:56;2.20;;;1.90;;
34765;SDS011;20984;43.508;1.504;2023-04-25T05:58:21;1.95;;;1.75;;
34765;SDS011;20984;43.508;1.504;2023-04-25T06:00:47;3.83;;;2.10;;
34765;SDS011;20984;43.508;1.504;2023-04-25T06:03:13;1.92;;;1.60;;
34765;SDS011;20984;43.508;1.504;2023-04-25T06:05:42;2.35;;;1.90;;
34765;SDS011;20984;43.508;1.504;2023-04-25T06:08:08;6.97;;;1.90;;
34765;SDS011;20984;43.508;1.504;2023-04-25T06:10:34;1.90;;;1.70;;
34765;SDS011;20984;43.508;1.504;2023-04-25T06:13:00;2.10;;;1.90;;
34765;SDS011;20984;43.508;1.504;2023-04-25T06:15:26;2.20;;;2.00;;
34765;SDS011;20984;43.508;1.504;2023-04-25T06:17:52;6.65;;;2.20;;
34765;SDS011;20984;43.508;1.504;2023-04-25T06:20:17;3.15;;;2.13;;
34765;SDS011;20984;43.508;1.504;2023-04-25T06:22:47;2.50;;;1.90;;
34765;SDS011;20984;43.508;1.504;2023-04-25T06:25:14;3.72;;;1.73;;
34765;SDS011;20984;43.508;1.504;2023-04-25T06:27:40;2.80;;;2.00;;
34765;SDS011;20984;43.508;1.504;2023-04-25T06:30:06;2.95;;;1.98;;
34765;SDS011;20984;43.508;1.504;2023-04-25T06:32:32;2.30;;;2.10;;
34765;SDS011;20984;43.508;1.504;2023-04-25T06:34:59;2.20;;;1.77;;
34765;SDS011;20984;43.508;1.504;2023-04-25T06:37:25;2.00;;;1.80;;
34765;SDS011;20984;43.508;1.504;2023-04-25T06:39:51;3.40;;;1.63;;
34765;SDS011;20984;43.508;1.504;2023-04-25T06:42:16;1.95;;;1.60;;
34765;SDS011;20984;43.508;1.504;2023-04-25T06:44:42;2.95;;;2.00;;
34765;SDS011;20984;43.508;1.504;2023-04-25T06:47:08;2.03;;;1.80;;
34765;SDS011;20984;43.508;1.504;2023-04-25T06:49:33;1.80;;;1.60;;
34765;SDS011;20984;43.508;1.504;2023-04-25T06:51:59;3.50;;;1.90;;
34765;SDS011;20984;43.508;1.504;2023-04-25T06:54:25;2.08;;;1.50;;
34765;SDS011;20984;43.508;1.504;2023-04-25T06:56:52;3.38;;;1.83;;
34765;SDS011;20984;43.508;1.504;2023-04-25T06:59:18;3.22;;;1.75;;
34765;SDS011;20984;43.508;1.504;2023-04-25T07:01:44;2.40;;;1.88;;
34765;SDS011;20984;43.508;1.504;2023-04-25T07:04:10;3.95;;;1.85;;
34765;SDS011;20984;43.508;1.504;2023-04-25T07:06:36;1.70;;;1.60;;
34765;SDS011;20984;43.508;1.504;2023-04-25T07:09:07;3.08;;;1.70;;
34765;SDS011;20984;43.508;1.504;2023-04-25T07:11:36;2.15;;;1.92;;
34765;SDS011;20984;43.508;1.504;2023-04-25T07:14:02;4.93;;;2.22;;
34765;SDS011;20984;43.508;1.504;2023-04-25T07:16:27;2.33;;;1.80;;
34765;SDS011;20984;43.508;1.504;2023-04-25T07:18:53;2.00;;;1.80;;
34765;SDS011;20984;43.508;1.504;2023-04-25T07:21:19;2.38;;;1.80;;
34765;SDS011;20984;43.508;1.504;2023-04-25T07:23:44;2.10;;;1.90;;
34765;SDS011;20984;43.508;1.504;2023-04-25T07:26:10;2.67;;;2.00;;
34765;SDS011;20984;43.508;1.504;2023-04-25T07:28:36;4.38;;;1.83;;
34765;SDS011;20984;43.508;1.504;2023-04-25T07:31:02;3.72;;;2.10;;
34765;SDS011;20984;43.508;1.504;2023-04-25T07:33:27;1.85;;;1.75;;
34765;SDS011;20984;43.508;1.504;2023-04-25T07:35:53;2.05;;;1.90;;
34765;SDS011;20984;43.508;1.504;2023-04-25T07:38:20;3.28;;;2.10;;
34765;SDS011;20984;43.508;1.504;2023-04-25T07:40:47;4.80;;;2.20;;
34765;SDS011;20984;43.508;1.504;2023-04-25T07:43:13;4.45;;;1.98;;
34765;SDS011;20984;43.508;1.504;2023-04-25T07:45:41;3.50;;;1.98;;
34765;SDS011;20984;43.508;1.504;2023-04-25T07:48:07;3.53;;;2.00;;
34765;SDS011;20984;43.508;1.504;2023-04-25T07:50:33;2.30;;;1.90;;
34765;SDS011;20984;43.508;1.504;2023-04-25T07:52:59;2.10;;;1.90;;
34765;SDS011;20984;43.508;1.504;2023-04-25T07:55:25;3.70;;;2.10;;
34765;SDS011;20984;43.508;1.504;2023-04-25T07:57:51;3.28;;;1.85;;
34765;SDS011;20984;43.508;1.504;2023-04-25T08:00:16;4.30;;;1.85;;
34765;SDS011;20984;43.508;1.504;2023-04-25T08:02:42;3.25;;;1.60;;
34765;SDS011;20984;43.508;1.504;2023-04-25T08:05:08;1.83;;;1.60;;
34765;SDS011;20984;43.508;1.504;2023-04-25T08:07:36;1.40;;;1.30;;
34765;SDS011;20984;43.508;1.504;2023-04-25T08:10:04;1.40;;;1.25;;
34765;SDS011;20984;43.508;1.504;2023-04-25T08:12:30;1.60;;;1.40;;
34765;SDS011;20984;43.508;1.504;2023-04-25T08:14:56;2.40;;;1.50;;
34765;SDS011;20984;43.508;1.504;2023-04-25T08:17:22;2.58;;;1.67;;
34765;SDS011;20984;43.508;1.504;2023-04-25T08:19:47;1.83;;;1.50;;
34765;SDS011;20984;43.508;1.504;2023-04-25T08:22:13;2.70;;;1.60;;
34765;SDS011;20984;43.508;1.504;2023-04-25T08:24:39;1.60;;;1.50;;
34765;SDS011;20984;43.508;1.504;2023-04-25T08:27:06;1.50;;;1.40;;
34765;SDS011;20984;43.508;1.504;2023-04-25T08:29:32;2.20;;;1.50;;
34765;SDS011;20984;43.508;1.504;2023-04-25T08:31:58;2.10;;;1.58;;
34765;SDS011;20984;43.508;1.504;2023-04-25T08:34:24;2.78;;;1.70;;
34765;SDS011;20984;43.508;1.504;2023-04-25T08:36:50;2.67;;;1.58;;
34765;SDS011;20984;43.508;1.504;2023-04-25T08:39:16;1.70;;;1.60;;
34765;SDS011;20984;43.508;1.504;2023-04-25T08:41:42;1.58;;;1.48;;
34765;SDS011;20984;43.508;1.504;2023-04-25T08:44:09;1.80;;;1.70;;
34765;SDS011;20984;43.508;1.504;2023-04-25T08:46:37;2.90;;;1.70;;
34765;SDS011;20984;43.508;1.504;2023-04-25T08:49:05;1.80;;;1.70;;
34765;SDS011;20984;43.508;1.504;2023-04-25T08:51:32;2.88;;;1.77;;
34765;SDS011;20984;43.508;1.504;2023-04-25T08:54:03;4.82;;;1.95;;
34765;SDS011;20984;43.508;1.504;2023-04-25T08:56:35;1.95;;;1.77;;
34765;SDS011;20984;43.508;1.504;2023-04-25T08:59:01;2.88;;;1.85;;
34765;SDS011;20984;43.508;1.504;2023-04-25T09:01:27;3.95;;;1.70;;
34765;SDS011;20984;43.508;1.504;2023-04-25T09:03:53;3.50;;;2.30;;
34765;SDS011;20984;43.508;1.504;2023-04-25T09:06:19;2.50;;;1.90;;
34765;SDS011;20984;43.508;1.504;2023-04-25T09:08:46;3.20;;;1.80;;
34765;SDS011;20984;43.508;1.504;2023-04-25T09:11:12;2.42;;;1.60;;
34765;SDS011;20984;43.508;1.504;2023-04-25T09:13:38;2.13;;;1.90;;
34765;SDS011;20984;43.508;1.504;2023-04-25T09:16:03;2.00;;;1.80;;
34765;SDS011;20984;43.508;1.504;2023-04-25T09:21:06;3.42;;;1.98;;
34765;SDS011;20984;43.508;1.504;2023-04-25T09:23:40;2.60;;;2.07;;
34765;SDS011;20984;43.508;1.504;2023-04-25T09:26:07;2.67;;;1.90;;
34765;SDS011;20984;43.508;1.504;2023-04-25T09:28:34;13.38;;;2.90;;
34765;SDS011;20984;43.508;1.504;2023-04-25T09:31:00;4.20;;;2.20;;
34765;SDS011;20984;43.508;1.504;2023-04-25T09:33:32;3.65;;;1.83;;
34765;SDS011;20984;43.508;1.504;2023-04-25T09:36:03;3.35;;;1.90;;
34765;SDS011;20984;43.508;1.504;2023-04-25T09:38:31;1.30;;;1.20;;
34765;SDS011;20984;43.508;1.504;2023-04-25T09:40:58;2.38;;;1.30;;
34765;SDS011;20984;43.508;1.504;2023-04-25T09:43:24;5.90;;;1.30;;
34765;SDS011;20984;43.508;1.504;2023-04-25T09:45:50;2.28;;;1.50;;
34765;SDS011;20984;43.508;1.504;2023-04-25T09:48:19;1.52;;;1.42;;
34765;SDS011;20984;43.508;1.504;2023-04-25T09:51:03;2.05;;;1.50;;
34765;SDS011;20984;43.508;1.504;2023-04-25T09:53:36;1.40;;;1.30;;
34765;SDS011;20984;43.508;1.504;2023-04-25T09:58:30;1.20;;;1.10;;
34765;SDS011;20984;43.508;1.504;2023-04-25T10:00:58;2.00;;;1.35;;
34765;SDS011;20984;43.508;1.504;2023-04-25T10:03:26;4.57;;;1.60;;
34765;SDS011;20984;43.508;1.504;2023-04-25T10:05:52;3.33;;;1.40;;
34765;SDS011;20984;43.508;1.504;2023-04-25T10:08:19;1.58;;;1.45;;
34765;SDS011;20984;43.508;1.504;2023-04-25T10:10:46;2.90;;;1.42;;
34765;SDS011;20984;43.508;1.504;2023-04-25T10:13:13;2.13;;;1.40;;
34765;SDS011;20984;43.508;1.504;2023-04-25T10:15:39;3.50;;;1.63;;
34765;SDS011;20984;43.508;1.504;2023-04-25T10:18:06;2.00;;;1.80;;
34765;SDS011;20984;43.508;1.504;2023-04-25T10:20:32;2.00;;;1.40;;
34765;SDS011;20984;43.508;1.504;2023-04-25T10:22:58;5.90;;;1.77;;
34765;SDS011;20984;43.508;1.504;2023-04-25T10:25:35;1.40;;;1.30;;
34765;SDS011;20984;43.508;1.504;2023-04-25T10:28:02;1.67;;;1.42;;
34765;SDS011;20984;43.508;1.504;2023-04-25T10:30:28;3.88;;;1.60;;
34765;SDS011;20984;43.508;1.504;2023-04-25T10:32:55;2.90;;;1.73;;
34765;SDS011;20984;43.508;1.504;2023-04-25T10:35:25;1.98;;;1.60;;
34765;SDS011;20984;43.508;1.504;2023-04-25T10:37:56;1.92;;;1.60;;
34765;SDS011;20984;43.508;1.504;2023-04-25T10:40:35;1.50;;;1.40;;
34765;SDS011;20984;43.508;1.504;2023-04-25T10:46:03;2.25;;;1.40;;
34765;SDS011;20984;43.508;1.504;2023-04-25T10:48:59;3.22;;;1.55;;
34765;SDS011;20984;43.508;1.504;2023-04-25T10:51:27;1.40;;;1.30;;
34765;SDS011;20984;43.508;1.504;2023-04-25T10:54:00;1.70;;;1.42;;
34765;SDS011;20984;43.508;1.504;2023-04-25T10:56:36;2.83;;;1.60;;
34765;SDS011;20984;43.508;1.504;2023-04-25T11:01:37;1.88;;;1.50;;
34765;SDS011;20984;43.508;1.504;2023-04-25T11:04:05;1.60;;;1.50;;
34765;SDS011;20984;43.508;1.504;2023-04-25T11:09:18;6.43;;;2.20;;
34765;SDS011;20984;43.508;1.504;2023-04-25T11:11:52;3.30;;;1.55;;
34765;SDS011;20984;43.508;1.504;2023-04-25T11:14:19;1.63;;;1.45;;
34765;SDS011;20984;43.508;1.504;2023-04-25T11:16:45;2.90;;;1.98;;
34765;SDS011;20984;43.508;1.504;2023-04-25T11:19:11;2.25;;;1.63;;
34765;SDS011;20984;43.508;1.504;2023-04-25T11:21:36;4.40;;;2.05;;
34765;SDS011;20984;43.508;1.504;2023-04-25T11:24:02;4.20;;;1.90;;
34765;SDS011;20984;43.508;1.504;2023-04-25T11:26:29;2.10;;;1.45;;
34765;SDS011;20984;43.508;1.504;2023-04-25T11:28:59;1.83;;;1.58;;
34765;SDS011;20984;43.508;1.504;2023-04-25T11:31:29;2.13;;;1.50;;
34765;SDS011;20984;43.508;1.504;2023-04-25T11:33:58;1.70;;;1.30;;
34765;SDS011;20984;43.508;1.504;2023-04-25T11:36:24;1.73;;;1.50;;
34765;SDS011;20984;43.508;1.504;2023-04-25T11:38:51;1.70;;;1.48;;
34765;SDS011;20984;43.508;1.504;2023-04-25T11:41:18;1.73;;;1.38;;
34765;SDS011;20984;43.508;1.504;2023-04-25T11:43:45;2.08;;;1.27;;
34765;SDS011;20984;43.508;1.504;2023-04-25T11:46:11;1.92;;;1.33;;
34765;SDS011;20984;43.508;1.504;2023-04-25T11:48:40;1.77;;;1.13;;
34765;SDS011;20984;43.508;1.504;2023-04-25T11:51:06;1.25;;;1.15;;
34765;SDS011;20984;43.508;1.504;2023-04-25T11:53:32;1.70;;;1.30;;
34765;SDS011;20984;43.508;1.504;2023-04-25T11:55:58;1.63;;;1.25;;
34765;SDS011;20984;43.508;1.504;2023-04-25T11:58:25;1.38;;;1.20;;
34765;SDS011;20984;43.508;1.504;2023-04-25T12:00:51;5.00;;;1.60;;
34765;SDS011;20984;43.508;1.504;2023-04-25T12:03:17;1.58;;;1.20;;
34765;SDS011;20984;43.508;1.504;2023-04-25T12:05:44;1.70;;;1.27;;
34765;SDS011;20984;43.508;1.504;2023-04-25T12:08:14;2.58;;;1.67;;
34765;SDS011;20984;43.508;1.504;2023-04-25T12:10:44;1.63;;;1.30;;
34765;SDS011;20984;43.508;1.504;2023-04-25T12:13:20;3.40;;;1.63;;
34765;SDS011;20984;43.508;1.504;2023-04-25T12:15:47;1.67;;;1.50;;
34765;SDS011;20984;43.508;1.504;2023-04-25T12:18:13;3.00;;;1.95;;
34765;SDS011;20984;43.508;1.504;2023-04-25T12:20:39;2.53;;;1.30;;
34765;SDS011;20984;43.508;1.504;2023-04-25T12:23:06;1.20;;;1.10;;
34765;SDS011;20984;43.508;1.504;2023-04-25T12:25:39;1.55;;;1.30;;
34765;SDS011;20984;43.508;1.504;2023-04-25T12:28:23;1.67;;;1.30;;
34765;SDS011;20984;43.508;1.504;2023-04-25T12:33:18;1.70;;;1.60;;
34765;SDS011;20984;43.508;1.504;2023-04-25T12:35:43;1.92;;;1.50;;
34765;SDS011;20984;43.508;1.504;2023-04-25T12:38:09;3.63;;;1.75;;
34765;SDS011;20984;43.508;1.504;2023-04-25T12:40:35;2.22;;;1.67;;
34765;SDS011;20984;43.508;1.504;2023-04-25T12:43:01;1.90;;;1.52;;
34765;SDS011;20984;43.508;1.504;2023-04-25T12:45:26;4.25;;;2.50;;
34765;SDS011;20984;43.508;1.504;2023-04-25T12:47:52;5.13;;;3.47;;
34765;SDS011;20984;43.508;1.504;2023-04-25T12:50:18;5.28;;;3.22;;
34765;SDS011;20984;43.508;1.504;2023-04-25T12:52:43;4.65;;;2.65;;
34765;SDS011;20984;43.508;1.504;2023-04-25T12:55:09;3.58;;;1.90;;
34765;SDS011;20984;43.508;1.504;2023-04-25T12:57:34;3.95;;;2.45;;
34765;SDS011;20984;43.508;1.504;2023-04-25T13:00:00;1.45;;;1.35;;
34765;SDS011;20984;43.508;1.504;2023-04-25T13:02:26;2.22;;;1.88;;
34765;SDS011;20984;43.508;1.504;2023-04-25T13:04:52;6.47;;;2.20;;
34765;SDS011;20984;43.508;1.504;2023-04-25T13:07:17;3.28;;;2.10;;
34765;SDS011;20984;43.508;1.504;2023-04-25T13:09:43;2.88;;;2.00;;
34765;SDS011;20984;43.508;1.504;2023-04-25T13:12:09;2.88;;;2.10;;
34765;SDS011;20984;43.508;1.504;2023-04-25T13:14:34;3.35;;;2.20;;
34765;SDS011;20984;43.508;1.504;2023-04-25T13:17:00;3.08;;;2.30;;
34765;SDS011;20984;43.508;1.504;2023-04-25T13:19:25;4.20;;;2.60;;
34765;SDS011;20984;43.508;1.504;2023-04-25T13:21:51;10.73;;;2.78;;
34765;SDS011;20984;43.508;1.504;2023-04-25T13:24:17;3.38;;;2.40;;
34765;SDS011;20984;43.508;1.504;2023-04-25T13:26:43;2.50;;;2.20;;
34765;SDS011;20984;43.508;1.504;2023-04-25T13:29:08;5.03;;;1.80;;
34765;SDS011;20984;43.508;1.504;2023-04-25T13:31:34;2.42;;;1.90;;
34765;SDS011;20984;43.508;1.504;2023-04-25T13:34:00;2.30;;;1.80;;
34765;SDS011;20984;43.508;1.504;2023-04-25T13:36:25;2.70;;;2.05;;
34765;SDS011;20984;43.508;1.504;2023-04-25T13:38:52;3.13;;;2.55;;
34765;SDS011;20984;43.508;1.504;2023-04-25T13:41:18;2.20;;;2.00;;
34765;SDS011;20984;43.508;1.504;2023-04-25T13:43:44;2.50;;;1.83;;
34765;SDS011;20984;43.508;1.504;2023-04-25T13:46:12;2.80;;;1.90;;
34765;SDS011;20984;43.508;1.504;2023-04-25T13:48:38;2.40;;;2.10;;
34765;SDS011;20984;43.508;1.504;2023-04-25T13:51:04;4.47;;;2.20;;
34765;SDS011;20984;43.508;1.504;2023-04-25T13:53:30;3.15;;;2.50;;
34765;SDS011;20984;43.508;1.504;2023-04-25T13:55:55;3.25;;;2.10;;
34765;SDS011;20984;43.508;1.504;2023-04-25T13:58:21;2.00;;;1.60;;
34765;SDS011;20984;43.508;1.504;2023-04-25T14:00:47;2.80;;;1.67;;
34765;SDS011;20984;43.508;1.504;2023-04-25T14:03:13;3.83;;;2.20;;
34765;SDS011;20984;43.508;1.504;2023-04-25T14:05:38;3.70;;;2.38;;
34765;SDS011;20984;43.508;1.504;2023-04-25T14:08:05;3.67;;;2.25;;
34765;SDS011;20984;43.508;1.504;2023-04-25T14:10:32;4.18;;;2.00;;
34765;SDS011;20984;43.508;1.504;2023-04-25T14:12:58;1.90;;;1.70;;
34765;SDS011;20984;43.508;1.504;2023-04-25T14:15:24;2.90;;;1.77;;
34765;SDS011;20984;43.508;1.504;2023-04-25T14:17:50;4.03;;;2.70;;
34765;SDS011;20984;43.508;1.504;2023-04-25T14:20:16;3.65;;;2.60;;
34765;SDS011;20984;43.508;1.504;2023-04-25T14:22:45;2.35;;;2.08;;
34765;SDS011;20984;43.508;1.504;2023-04-25T14:25:11;3.22;;;1.90;;
34765;SDS011;20984;43.508;1.504;2023-04-25T14:27:36;4.47;;;2.00;;
34765;SDS011;20984;43.508;1.504;2023-04-25T14:30:02;4.10;;;2.00;;
34765;SDS011;20984;43.508;1.504;2023-04-25T14:35:29;3.85;;;1.65;;
34765;SDS011;20984;43.508;1.504;2023-04-25T14:37:54;2.85;;;1.92;;
34765;SDS011;20984;43.508;1.504;2023-04-25T14:40:20;2.13;;;1.67;;
34765;SDS011;20984;43.508;1.504;2023-04-25T14:42:48;1.88;;;1.70;;
34765;SDS011;20984;43.508;1.504;2023-04-25T14:45:14;3.22;;;2.20;;
34765;SDS011;20984;43.508;1.504;2023-04-25T14:47:40;2.45;;;1.65;;
34765;SDS011;20984;43.508;1.504;2023-04-25T14:50:06;2.72;;;1.67;;
34765;SDS011;20984;43.508;1.504;2023-04-25T14:52:33;1.75;;;1.50;;
34765;SDS011;20984;43.508;1.504;2023-04-25T14:54:59;2.20;;;1.70;;
34765;SDS011;20984;43.508;1.504;2023-04-25T14:57:29;1.97;;;1.60;;
34765;SDS011;20984;43.508;1.504;2023-04-25T14:59:56;2.45;;;1.70;;
34765;SDS011;20984;43.508;1.504;2023-04-25T15:02:21;2.28;;;1.60;;